createdAt,value
2023-02-14T00:00:11.265Z,12.88
2023-02-14T00:03:00.648Z,12.52
2023-02-14T00:05:30.385Z,9.98
2023-02-14T00:07:59.669Z,19.95
2023-02-14T00:10:29.388Z,15.27
2023-02-14T00:12:59.938Z,12.10
2023-02-14T00:15:28.478Z,8.90
2023-02-14T00:17:59.809Z,9.63
2023-02-14T00:20:29.537Z,9.93
2023-02-14T00:23:00.950Z,14.40
2023-02-14T00:25:30.675Z,13.55
2023-02-14T00:28:01.270Z,9.85
2023-02-14T00:30:31.273Z,12.45
2023-02-14T00:33:00.845Z,10.05
2023-02-14T00:35:30.374Z,13.18
2023-02-14T00:37:59.573Z,14.90
2023-02-14T00:40:29.128Z,17.27
2023-02-14T00:43:01.122Z,13.50
2023-02-14T00:45:30.625Z,10.52
2023-02-14T00:48:00.379Z,8.43
2023-02-14T00:50:30.109Z,14.63
2023-02-14T00:52:59.193Z,13.48
2023-02-14T00:55:28.672Z,10.20
2023-02-14T00:57:58.289Z,11.00
2023-02-14T01:00:29.274Z,13.27
2023-02-14T01:02:58.896Z,9.52
2023-02-14T01:05:28.675Z,17.95
2023-02-14T01:07:58.422Z,13.35
2023-02-14T01:10:28.179Z,9.75
2023-02-14T01:12:57.564Z,14.52
2023-02-14T01:15:28.421Z,9.50
2023-02-14T01:17:58.898Z,11.25
2023-02-14T01:20:29.031Z,13.02
2023-02-14T01:22:58.230Z,14.10
2023-02-14T01:25:27.843Z,12.48
2023-02-14T01:27:57.166Z,13.13
2023-02-14T01:30:28.373Z,8.55
2023-02-14T01:32:57.611Z,8.23
2023-02-14T01:35:27.196Z,15.30
2023-02-14T01:37:56.885Z,16.45
2023-02-14T01:40:26.516Z,17.02
2023-02-14T01:42:57.433Z,10.05
2023-02-14T01:45:30.933Z,9.88
2023-02-14T01:48:00.208Z,11.40
2023-02-14T01:50:35.976Z,8.32
2023-02-14T01:53:10.225Z,13.18
2023-02-14T01:55:43.670Z,10.90
2023-02-14T01:58:16.692Z,18.02
2023-02-14T02:01:00.740Z,10.55
2023-02-14T02:03:34.196Z,9.40
2023-02-14T02:06:11.265Z,8.50
2023-02-14T02:08:45.701Z,11.13
2023-02-14T02:11:15.226Z,20.70
2023-02-14T02:13:44.551Z,8.18
2023-02-14T02:16:46.480Z,10.93
2023-02-14T02:19:43.702Z,13.68
2023-02-14T02:22:55.641Z,12.45
2023-02-14T02:25:45.074Z,18.55
2023-02-14T02:28:48.639Z,7.15
2023-02-14T02:31:37.746Z,13.15
2023-02-14T02:34:41.530Z,7.10
2023-02-14T02:37:24.222Z,9.27
2023-02-14T02:40:07.777Z,9.32
2023-02-14T02:42:49.889Z,11.73
2023-02-14T02:45:32.540Z,23.42
2023-02-14T02:48:11.140Z,8.93
2023-02-14T02:51:02.160Z,13.88
2023-02-14T02:53:41.982Z,11.27
2023-02-14T02:56:33.998Z,11.07
2023-02-14T02:59:07.265Z,8.82
2023-02-14T03:01:41.560Z,12.68
2023-02-14T03:04:30.906Z,8.55
2023-02-14T03:07:01.948Z,12.93
2023-02-14T03:09:56.788Z,9.20
2023-02-14T03:12:58.254Z,11.45
2023-02-14T03:15:44.307Z,15.02
2023-02-14T03:18:40.553Z,8.43
2023-02-14T03:21:20.177Z,10.95
2023-02-14T03:23:57.497Z,8.60
2023-02-14T03:26:38.937Z,10.52
2023-02-14T03:29:16.717Z,14.55
2023-02-14T03:36:55.935Z,9.00
2023-02-14T03:39:33.429Z,5.90
2023-02-14T03:42:08.854Z,14.60
2023-02-14T03:44:39.804Z,15.70
2023-02-14T03:47:13.001Z,8.55
2023-02-14T03:49:46.656Z,8.00
2023-02-14T03:52:17.897Z,7.20
2023-02-14T03:54:52.337Z,8.05
2023-02-14T03:57:27.108Z,6.82
2023-02-14T03:59:57.554Z,11.25
2023-02-14T04:02:32.501Z,12.88
2023-02-14T04:05:03.862Z,10.60
2023-02-14T04:07:33.412Z,7.43
2023-02-14T04:10:02.751Z,6.18
2023-02-14T04:12:38.046Z,6.25
2023-02-14T04:15:08.574Z,8.07
2023-02-14T04:17:55.943Z,7.13
2023-02-14T04:20:25.444Z,11.93
2023-02-14T04:22:55.209Z,10.07
2023-02-14T04:25:24.982Z,6.88
2023-02-14T04:27:55.849Z,9.57
2023-02-14T04:30:25.110Z,8.52
2023-02-14T04:32:54.677Z,10.85
2023-02-14T04:35:23.936Z,13.43
2023-02-14T04:37:53.494Z,8.27
2023-02-14T04:40:22.873Z,8.13
2023-02-14T04:42:52.497Z,6.35
2023-02-14T04:45:23.321Z,9.13
2023-02-14T04:47:52.805Z,10.13
2023-02-14T04:50:23.469Z,8.07
2023-02-14T04:52:52.972Z,7.53
2023-02-14T04:55:22.358Z,9.40
2023-02-14T04:57:52.059Z,12.05
2023-02-14T05:00:24.185Z,11.35
2023-02-14T05:02:53.715Z,11.07
2023-02-14T05:05:23.006Z,10.10
2023-02-14T05:07:52.568Z,13.27
2023-02-14T05:10:21.788Z,10.65
2023-02-14T05:12:51.263Z,8.02
2023-02-14T05:15:20.564Z,7.18
2023-02-14T05:17:51.402Z,10.63
2023-02-14T05:20:20.883Z,8.13
2023-02-14T05:22:50.364Z,10.05
2023-02-14T05:25:19.784Z,11.85
2023-02-14T05:27:49.379Z,9.57
2023-02-14T05:30:18.831Z,6.53
2023-02-14T05:32:48.553Z,7.65
2023-02-14T05:35:19.318Z,12.55
2023-02-14T05:37:48.891Z,9.98
2023-02-14T05:40:18.284Z,10.98
2023-02-14T05:42:47.786Z,9.45
2023-02-14T05:45:17.269Z,8.75
2023-02-14T05:47:48.444Z,8.57
2023-02-14T05:50:19.540Z,12.13
2023-02-14T05:52:49.132Z,13.15
2023-02-14T05:55:18.797Z,10.02
2023-02-14T05:57:48.349Z,12.57
2023-02-14T06:00:19.122Z,11.00
2023-02-14T06:02:48.652Z,10.63
2023-02-14T06:05:20.338Z,9.18
2023-02-14T06:07:51.468Z,8.27
2023-02-14T06:10:21.237Z,9.82
2023-02-14T06:12:52.329Z,7.85
2023-02-14T06:15:22.294Z,9.02
2023-02-14T06:17:55.892Z,11.95
2023-02-14T06:20:27.737Z,12.88
2023-02-14T06:22:57.772Z,11.32
2023-02-14T06:25:27.680Z,7.97
2023-02-14T06:27:58.570Z,10.40
2023-02-14T06:30:28.910Z,7.85
2023-02-14T06:32:58.516Z,6.60
2023-02-14T06:35:29.390Z,6.40
2023-02-14T06:37:58.864Z,4.10
2023-02-14T06:40:28.198Z,9.05
2023-02-14T06:42:57.725Z,7.82
2023-02-14T06:45:26.863Z,10.48
2023-02-14T06:47:56.612Z,8.25
2023-02-14T06:50:25.767Z,7.78
2023-02-14T06:52:56.881Z,11.57
2023-02-14T06:55:26.383Z,9.40
2023-02-14T06:57:55.806Z,7.30
2023-02-14T07:00:25.155Z,7.78
2023-02-14T07:02:55.063Z,8.68
2023-02-14T07:05:24.465Z,7.13
2023-02-14T07:07:55.295Z,9.85
2023-02-14T07:10:24.536Z,7.32
2023-02-14T07:12:54.171Z,6.80
2023-02-14T07:15:23.732Z,7.72
2023-02-14T07:17:53.461Z,10.25
2023-02-14T07:20:23.365Z,12.02
2023-02-14T07:22:53.262Z,9.65
2023-02-14T07:25:24.195Z,14.68
2023-02-14T07:27:53.708Z,11.23
2023-02-14T07:30:23.038Z,12.75
2023-02-14T07:32:52.639Z,8.93
2023-02-14T07:35:22.142Z,9.57
2023-02-14T07:37:52.485Z,8.85
2023-02-14T07:40:25.222Z,7.88
2023-02-14T07:42:55.736Z,11.82
2023-02-14T07:45:26.010Z,8.85
2023-02-14T07:47:59.085Z,11.98
2023-02-14T07:50:28.793Z,7.47
2023-02-14T07:52:58.762Z,6.25
2023-02-14T07:55:29.620Z,7.95
2023-02-14T07:57:59.030Z,8.48
2023-02-14T08:00:28.351Z,10.25
2023-02-14T08:02:58.036Z,9.27
2023-02-14T08:05:27.334Z,10.50
2023-02-14T08:07:56.897Z,10.93
2023-02-14T08:10:26.294Z,7.78
2023-02-14T08:13:00.134Z,8.35
2023-02-14T08:15:48.234Z,8.48
2023-02-14T08:18:18.711Z,9.13
2023-02-14T08:20:50.009Z,6.03
2023-02-14T08:23:19.980Z,7.18
2023-02-14T08:25:50.808Z,10.63
2023-02-14T08:28:22.223Z,5.93
2023-02-14T08:30:51.956Z,9.48
2023-02-14T08:33:21.846Z,7.07
2023-02-14T08:35:52.102Z,7.50
2023-02-14T08:38:21.973Z,8.60
2023-02-14T08:40:51.151Z,8.55
2023-02-14T08:43:22.156Z,8.60
2023-02-14T08:45:55.107Z,9.45
2023-02-14T08:48:26.847Z,7.82
2023-02-14T08:50:55.972Z,11.52
2023-02-14T08:53:25.435Z,7.75
2023-02-14T08:55:54.676Z,6.85
2023-02-14T08:58:25.566Z,6.22
2023-02-14T09:00:55.761Z,8.50
2023-02-14T09:03:25.401Z,13.00
2023-02-14T09:05:54.671Z,7.65
2023-02-14T09:08:24.457Z,7.25
2023-02-14T09:10:53.832Z,8.00
2023-02-14T09:13:24.817Z,8.63
2023-02-14T09:15:54.163Z,7.47
2023-02-14T09:18:23.796Z,7.72
2023-02-14T09:20:53.027Z,5.88
2023-02-14T09:23:22.687Z,9.40
2023-02-14T09:25:51.965Z,5.90
2023-02-14T09:28:21.569Z,6.70
2023-02-14T09:30:54.403Z,5.82
2023-02-14T09:33:24.561Z,8.38
2023-02-14T09:36:11.182Z,7.22
2023-02-14T09:38:41.072Z,7.90
2023-02-14T09:41:11.978Z,9.02
2023-02-14T09:43:48.217Z,5.95
2023-02-14T09:46:20.092Z,11.25
2023-02-14T09:48:50.379Z,9.35
2023-02-14T09:51:23.412Z,10.65
2023-02-14T09:53:57.925Z,8.80
2023-02-14T09:56:42.687Z,7.90
2023-02-14T09:59:25.405Z,7.85
2023-02-14T10:02:00.992Z,6.15
2023-02-14T10:04:35.011Z,6.43
2023-02-14T10:07:19.738Z,10.63
2023-02-14T10:09:59.946Z,5.43
2023-02-14T10:12:34.332Z,7.10
2023-02-14T10:15:14.043Z,7.38
2023-02-14T10:17:49.537Z,6.47
2023-02-14T10:20:24.827Z,6.80
2023-02-14T10:23:01.011Z,8.30
2023-02-14T10:25:35.527Z,6.47
2023-02-14T10:28:05.077Z,5.97
2023-02-14T10:30:40.491Z,5.80
2023-02-14T10:33:18.495Z,5.40
2023-02-14T10:35:51.210Z,4.20
2023-02-14T10:38:34.840Z,6.25
2023-02-14T10:41:20.341Z,11.00
2023-02-14T10:44:00.746Z,5.80
2023-02-14T10:46:39.819Z,6.00
2023-02-14T10:49:26.551Z,8.05
2023-02-14T10:52:02.344Z,7.15
2023-02-14T10:54:39.974Z,5.38
2023-02-14T10:57:16.185Z,6.18
2023-02-14T10:59:52.209Z,6.07
2023-02-14T11:02:27.034Z,5.00
2023-02-14T11:04:58.788Z,5.82
2023-02-14T11:07:29.390Z,5.75
2023-02-14T11:09:58.679Z,5.57
2023-02-14T11:12:37.626Z,4.72
2023-02-14T11:15:23.604Z,4.43
2023-02-14T11:18:11.006Z,4.55
2023-02-14T11:20:41.647Z,5.55
2023-02-14T11:23:22.015Z,5.80
2023-02-14T11:25:55.830Z,4.85
2023-02-14T11:28:25.817Z,4.38
2023-02-14T11:30:55.963Z,4.72
2023-02-14T11:33:39.752Z,6.32
2023-02-14T11:36:17.552Z,4.35
2023-02-14T11:38:56.260Z,7.90
2023-02-14T11:41:26.140Z,4.82
2023-02-14T11:44:15.709Z,5.07
2023-02-14T11:46:53.034Z,4.20
2023-02-14T11:49:29.878Z,5.45
2023-02-14T11:52:03.005Z,4.53
2023-02-14T11:54:37.143Z,4.70
2023-02-14T11:57:10.164Z,6.38
2023-02-14T11:59:43.957Z,5.25
2023-02-14T12:02:25.567Z,4.18
2023-02-14T12:04:59.593Z,6.03
2023-02-14T12:07:32.971Z,3.95
2023-02-14T12:10:19.973Z,5.10
2023-02-14T12:12:55.202Z,5.20
2023-02-14T12:15:51.515Z,4.90
2023-02-14T12:18:39.568Z,4.50
2023-02-14T12:21:23.603Z,4.20
2023-02-14T12:24:04.433Z,11.48
2023-02-14T12:26:38.952Z,7.30
2023-02-14T12:29:17.268Z,5.38
2023-02-14T12:31:49.531Z,7.05
2023-02-14T12:34:20.751Z,4.43
2023-02-14T12:37:12.133Z,6.50
2023-02-14T12:40:01.954Z,4.22
2023-02-14T12:42:54.751Z,4.43
2023-02-14T12:45:43.533Z,3.88
2023-02-14T12:48:24.533Z,4.43
2023-02-14T12:51:01.378Z,4.65
2023-02-14T12:53:43.247Z,4.18
2023-02-14T12:56:23.413Z,6.32
2023-02-14T12:59:04.416Z,4.90
2023-02-14T13:02:01.385Z,4.35
2023-02-14T13:04:55.582Z,6.45
2023-02-14T13:07:59.990Z,9.73
2023-02-14T13:13:16.663Z,5.00
2023-02-14T13:15:53.324Z,6.07
2023-02-14T13:18:33.748Z,6.72
2023-02-14T13:21:06.046Z,7.93
2023-02-14T13:23:39.761Z,6.35
2023-02-14T13:26:14.930Z,5.22
2023-02-14T13:28:52.057Z,6.72
2023-02-14T13:31:22.359Z,4.95
2023-02-14T13:33:55.427Z,5.70
2023-02-14T13:36:26.363Z,6.23
2023-02-14T13:38:58.532Z,7.20
2023-02-14T13:41:29.060Z,6.60
2023-02-14T13:44:01.749Z,7.57
2023-02-14T13:46:51.946Z,4.63
2023-02-14T13:49:32.761Z,7.95
2023-02-14T13:52:04.671Z,5.63
2023-02-14T13:54:37.360Z,7.32
2023-02-14T13:57:34.028Z,7.43
2023-02-14T14:00:48.176Z,7.22
2023-02-14T14:03:54.611Z,9.15
2023-02-14T14:06:23.989Z,6.10
2023-02-14T14:08:56.701Z,5.78
2023-02-14T14:12:00.809Z,4.80
2023-02-14T14:14:39.934Z,7.55
2023-02-14T14:17:27.741Z,7.30
2023-02-14T14:19:59.147Z,8.45
2023-02-14T14:22:29.410Z,6.75
2023-02-14T14:25:02.146Z,6.80
2023-02-14T14:27:36.727Z,7.80
2023-02-14T14:30:17.044Z,8.30
2023-02-14T14:32:46.648Z,8.70
2023-02-14T14:35:23.125Z,7.22
2023-02-14T14:37:54.582Z,7.70
2023-02-14T14:40:29.673Z,8.70
2023-02-14T14:43:08.004Z,7.90
2023-02-14T14:45:37.661Z,7.53
2023-02-14T14:48:13.774Z,12.63
2023-02-14T14:50:49.145Z,8.85
2023-02-14T14:53:24.327Z,10.75
2023-02-14T14:55:54.928Z,7.15
2023-02-14T14:58:37.602Z,10.82
2023-02-14T15:01:08.823Z,8.85
2023-02-14T15:03:38.021Z,9.95
2023-02-14T15:06:16.970Z,8.02
2023-02-14T15:08:46.499Z,10.10
2023-02-14T15:11:35.506Z,8.60
2023-02-14T15:14:09.028Z,10.95
2023-02-14T15:16:46.242Z,11.70
2023-02-14T15:19:22.574Z,10.40
2023-02-14T15:21:53.928Z,11.88
2023-02-14T15:24:23.254Z,9.05
2023-02-14T15:26:53.579Z,9.13
2023-02-14T15:29:25.625Z,12.60
2023-02-14T15:31:57.574Z,6.57
2023-02-14T15:34:29.649Z,11.73
2023-02-14T15:37:06.601Z,13.50
2023-02-14T15:39:39.254Z,11.60
2023-02-14T15:42:22.727Z,11.18
2023-02-14T15:44:51.926Z,12.02
2023-02-14T15:47:23.200Z,11.52
2023-02-14T15:49:52.384Z,11.15
2023-02-14T15:52:23.365Z,12.52
2023-02-14T15:54:52.570Z,11.57
2023-02-14T15:57:27.273Z,10.90
2023-02-14T15:59:56.736Z,17.27
2023-02-14T16:02:34.095Z,15.25
2023-02-14T16:05:15.730Z,10.60
2023-02-14T16:07:59.713Z,20.38
2023-02-14T16:10:30.582Z,14.77
2023-02-14T16:13:03.513Z,13.27
2023-02-14T16:15:33.905Z,9.93
2023-02-14T16:18:08.187Z,19.75
2023-02-14T16:20:43.326Z,17.23
2023-02-14T16:23:20.116Z,24.85
2023-02-14T16:25:49.419Z,16.80
2023-02-14T16:28:19.534Z,15.43
2023-02-14T16:30:55.019Z,12.40
2023-02-14T16:33:27.231Z,15.73
2023-02-14T16:35:58.700Z,15.93
2023-02-14T16:38:29.662Z,18.55
2023-02-14T16:40:59.053Z,15.23
2023-02-14T16:43:28.730Z,16.65
2023-02-14T16:45:58.040Z,15.68
2023-02-14T16:48:28.008Z,26.92
2023-02-14T16:50:58.003Z,17.38
2023-02-14T16:53:30.922Z,16.38
2023-02-14T16:56:00.417Z,17.73
2023-02-14T16:58:34.726Z,25.27
2023-02-14T17:01:04.331Z,25.33
2023-02-14T17:03:34.237Z,21.95
2023-02-14T17:06:04.106Z,21.25
2023-02-14T17:08:35.592Z,42.95
2023-02-14T17:11:06.119Z,45.42
2023-02-14T17:13:40.919Z,49.17
2023-02-14T17:16:12.988Z,121.00
2023-02-14T17:18:43.676Z,75.53
2023-02-14T17:21:13.133Z,49.22
2023-02-14T17:23:44.443Z,51.85
2023-02-14T17:26:14.434Z,63.20
2023-02-14T17:28:44.482Z,68.70
2023-02-14T17:31:13.844Z,51.95
2023-02-14T17:33:43.458Z,42.22
2023-02-14T17:36:14.798Z,43.38
2023-02-14T17:38:50.004Z,54.42
2023-02-14T17:41:21.920Z,56.45
2023-02-14T17:43:53.043Z,61.97
2023-02-14T17:46:22.879Z,61.83
2023-02-14T17:48:52.451Z,54.15
2023-02-14T17:51:21.802Z,47.55
2023-02-14T17:53:53.464Z,60.35
2023-02-14T17:56:25.625Z,65.78
2023-02-14T17:58:56.270Z,89.28
2023-02-14T18:01:27.224Z,97.65
2023-02-14T18:03:57.319Z,88.00
2023-02-14T18:06:26.938Z,78.05
2023-02-14T18:08:57.972Z,88.90
2023-02-14T18:11:28.751Z,81.65
2023-02-14T18:13:59.836Z,87.20
2023-02-14T18:16:29.252Z,70.78
2023-02-14T18:18:59.198Z,74.25
2023-02-14T18:21:28.741Z,76.65
2023-02-14T18:24:00.274Z,67.45
2023-02-14T18:26:30.967Z,51.97
2023-02-14T18:29:06.486Z,54.03
2023-02-14T18:31:37.764Z,51.00
2023-02-14T18:34:07.527Z,32.10
2023-02-14T18:36:39.248Z,21.38
2023-02-14T18:39:10.793Z,21.63
2023-02-14T18:41:40.041Z,20.17
2023-02-14T18:44:10.016Z,16.55
2023-02-14T18:46:40.107Z,18.58
2023-02-14T18:49:10.371Z,19.35
2023-02-14T18:51:40.331Z,22.88
2023-02-14T18:54:11.367Z,18.55
2023-02-14T18:56:41.002Z,17.60
2023-02-14T18:59:13.414Z,16.30
2023-02-14T19:01:46.027Z,25.20
2023-02-14T19:04:17.894Z,22.83
2023-02-14T19:06:47.664Z,21.10
2023-02-14T19:09:19.113Z,24.48
2023-02-14T19:11:48.711Z,19.67
2023-02-14T19:14:20.243Z,37.47
2023-02-14T19:16:51.351Z,61.92
2023-02-14T19:19:22.920Z,32.67
2023-02-14T19:21:53.158Z,36.53
2023-02-14T19:24:25.709Z,34.72
2023-02-14T19:26:56.194Z,32.63
2023-02-14T19:29:25.983Z,24.85
2023-02-14T19:31:59.587Z,18.92
2023-02-14T19:34:32.251Z,14.48
2023-02-14T19:37:02.858Z,15.98
2023-02-14T19:39:36.600Z,21.35
2023-02-14T19:42:06.519Z,19.35
2023-02-14T19:44:36.341Z,18.85
2023-02-14T19:47:19.293Z,14.63
2023-02-14T19:49:55.325Z,19.92
2023-02-14T19:52:26.643Z,20.85
2023-02-14T19:54:57.932Z,15.57
2023-02-14T19:57:27.527Z,17.25
2023-02-14T19:59:57.136Z,15.15
2023-02-14T20:02:26.696Z,15.07
2023-02-14T20:04:59.320Z,17.00
2023-02-14T20:07:28.748Z,18.83
2023-02-14T20:10:00.265Z,14.55
2023-02-14T20:12:29.885Z,18.13
2023-02-14T20:15:00.214Z,15.07
2023-02-14T20:17:29.599Z,18.30
2023-02-14T20:19:59.930Z,15.60
2023-02-14T20:22:30.477Z,18.45
2023-02-14T20:25:01.988Z,16.00
2023-02-14T20:27:31.643Z,12.68
2023-02-14T20:30:01.420Z,13.70
2023-02-14T20:32:31.307Z,15.00
2023-02-14T20:35:01.185Z,18.35
2023-02-14T20:37:30.827Z,19.88
2023-02-14T20:40:02.388Z,21.77
2023-02-14T20:42:31.963Z,14.05
2023-02-14T20:45:01.624Z,16.73
2023-02-14T20:47:31.113Z,13.55
2023-02-14T20:50:00.814Z,18.02
2023-02-14T20:52:30.285Z,45.70
2023-02-14T20:55:01.522Z,22.92
2023-02-14T20:57:31.090Z,15.23
2023-02-14T21:00:00.558Z,19.42
2023-02-14T21:02:29.979Z,14.65
2023-02-14T21:05:00.416Z,17.63
2023-02-14T21:07:30.987Z,29.40
2023-02-14T21:10:02.003Z,29.00
2023-02-14T21:12:31.188Z,29.52
2023-02-14T21:15:00.722Z,19.75
2023-02-14T21:17:30.168Z,21.45
2023-02-14T21:19:59.703Z,27.90
2023-02-14T21:22:29.032Z,17.25
2023-02-14T21:25:00.176Z,16.10
2023-02-14T21:27:29.462Z,23.00
2023-02-14T21:29:59.544Z,20.13
2023-02-14T21:32:29.250Z,16.27
2023-02-14T21:34:58.906Z,15.73
2023-02-14T21:37:28.174Z,18.80
2023-02-14T21:39:57.781Z,18.38
2023-02-14T21:42:28.660Z,20.88
2023-02-14T21:45:15.402Z,15.45
2023-02-14T21:48:04.729Z,14.07
2023-02-14T21:50:33.697Z,15.20
2023-02-14T21:53:03.069Z,15.98
2023-02-14T21:55:32.803Z,16.10
2023-02-14T21:58:03.530Z,17.55
2023-02-14T22:00:33.130Z,18.25
2023-02-14T22:03:03.089Z,20.05
2023-02-14T22:05:32.698Z,17.73
2023-02-14T22:08:02.002Z,21.55
2023-02-14T22:10:31.594Z,20.55
2023-02-14T22:13:02.322Z,16.52
2023-02-14T22:15:31.857Z,18.38
2023-02-14T22:18:01.020Z,17.73
2023-02-14T22:20:32.031Z,23.05
2023-02-14T22:23:01.657Z,21.92
2023-02-14T22:25:31.706Z,20.13
2023-02-14T22:28:05.136Z,23.88
2023-02-14T22:30:35.093Z,18.60
2023-02-14T22:33:04.855Z,17.52
2023-02-14T22:35:35.272Z,20.27
2023-02-14T22:38:05.025Z,18.90
2023-02-14T22:40:35.296Z,16.35
2023-02-14T22:43:05.952Z,19.85
2023-02-14T22:45:35.537Z,18.75
2023-02-14T22:48:04.930Z,16.48
2023-02-14T22:50:35.664Z,24.80
2023-02-14T22:53:05.856Z,16.67
2023-02-14T22:55:35.772Z,18.15
2023-02-14T22:58:06.653Z,30.13
2023-02-14T23:00:36.254Z,18.92
2023-02-14T23:03:05.645Z,21.58
2023-02-14T23:05:35.317Z,19.67
2023-02-14T23:08:04.569Z,15.68
2023-02-14T23:10:35.029Z,18.20
2023-02-14T23:13:23.177Z,19.05
2023-02-14T23:16:12.331Z,21.08
2023-02-14T23:18:58.776Z,40.05
2023-02-14T23:21:45.638Z,32.40
2023-02-14T23:24:14.937Z,19.92
2023-02-14T23:26:44.470Z,24.70
2023-02-14T23:29:15.044Z,25.00
2023-02-14T23:31:44.617Z,19.60
2023-02-14T23:34:13.904Z,18.40
2023-02-14T23:36:43.572Z,21.70
2023-02-14T23:39:13.034Z,19.90
2023-02-14T23:41:51.227Z,20.42
2023-02-14T23:44:23.883Z,20.38
2023-02-14T23:46:55.236Z,21.13
2023-02-14T23:49:25.426Z,21.67
2023-02-14T23:51:56.570Z,23.20
2023-02-14T23:54:26.430Z,20.30
2023-02-14T23:56:57.450Z,19.55
2023-02-14T23:59:29.399Z,19.45
